Ralph Henry — WDF7152 — position and weather

sailwx.info

Track history (hours):
 
Tides and Currents Weather Stations Pressure Air Temp Water Temp Dewpoint Dewpoint Depression Visibility Wind Speed Wind Dir Waves Ship Positions

Ralph Henry

Owner: M/V Ralph Henry, Granite City, IL. More information available from US FCC via Universal Licensing System and Coast Guard Vessel Documentation Center.

Last reported at 2018-May-15 14:20 UTC. Time now 2018-Jun-17 22:18 UTC.
Position N 38°38' W 090°11'.
Warning: this ship's position is 33 days out of date.

Length 21 m.

Type: Ship. MMSI: 367481620.

Date/timePositionNaut miles runAvg speedWind from/ knotsBaromVisibWave heightAir tempDewpointWater temp
2018-May-15 14:20N 38°38' W 090°11'0 1.4
2018-May-15 14:00N 38°38' W 090°11'0 0.2
2018-May-15 13:30N 38°38' W 090°11'0 0.1
2018-May-15 12:59N 38°38' W 090°11'0 0.1
2018-May-15 12:30N 38°38' W 090°11'1 2.9
2018-May-15 12:01N 38°39' W 090°11'0 0.8
2018-May-15 11:30N 38°39' W 090°11'2 4.1
2018-May-15 10:56N 38°37' W 090°11'1 2.2
2018-May-15 10:29N 38°36' W 090°12'0 1.0
2018-May-15 10:00N 38°35' W 090°12'0 0.3
2018-May-15 09:30N 38°35' W 090°12'0 0.1
2018-May-15 09:00N 38°35' W 090°12'0 0.5
2018-May-15 08:26N 38°35' W 090°12'0 0.0
2018-May-15 08:00N 38°35' W 090°12'0 0.0
2018-May-15 07:29N 38°35' W 090°12'0 0.0
2018-May-15 07:00N 38°35' W 090°12'0 0.2
2018-May-15 06:26N 38°35' W 090°12'5 1.9
2018-May-15 03:34N 38°31' W 090°16'0 0.3
2018-May-15 03:22N 38°31' W 090°16'0 0.0
2018-May-15 03:00N 38°31' W 090°16'1 0.3
2018-May-15 00:47N 38°30' W 090°16'3 9.2
2018-May-15 00:30N 38°33' W 090°15'3 1.6
2018-May-14 22:19N 38°35' W 090°12'2 4.5
2018-May-14 21:55N 38°37' W 090°11'2 3.9
2018-May-14 21:29N 38°39' W 090°11'1 1.1
2018-May-14 21:00N 38°38' W 090°11'1 2.7
2018-May-14 20:30N 38°39' W 090°11'0 0.5
2018-May-14 20:01N 38°39' W 090°11'1 2.4
2018-May-14 19:30N 38°38' W 090°11'0 0.1
2018-May-14 19:00N 38°38' W 090°11'0 0.1
2018-May-14 18:30N 38°38' W 090°11'0 0.3
2018-May-14 18:00N 38°38' W 090°11'1 1.4
2018-May-14 17:30N 38°39' W 090°11'1 2.4
2018-May-14 17:00N 38°40' W 090°11'1 2.3
2018-May-14 16:30N 38°41' W 090°11'1 2.1
2018-May-14 16:00N 38°40' W 090°11'1 2.7
2018-May-14 15:30N 38°38' W 090°11'1 1.0
2018-May-14 14:59N 38°38' W 090°11'1 1.3
2018-May-14 14:30N 38°39' W 090°11'0 0.2
2018-May-14 14:00N 38°38' W 090°11'1 1.9
2018-May-14 13:31N 38°39' W 090°11'0 0.3
2018-May-14 12:59N 38°39' W 090°11'0 0.3
2018-May-14 12:30N 38°39' W 090°11'1 1.6
2018-May-14 12:00N 38°39' W 090°11'2 3.2
2018-May-14 11:30N 38°37' W 090°11'1 2.8
2018-May-14 10:59N 38°36' W 090°12'0 0.4
2018-May-14 10:31N 38°36' W 090°12'0 0.4
2018-May-14 09:55N 38°35' W 090°12'3 6.8
2018-May-14 09:29N 38°38' W 090°11'0 0.1
2018-May-14 08:59N 38°38' W 090°11'0 0.0
2018-May-14 08:25N 38°38' W 090°11'0 0.5
2018-May-14 08:00N 38°38' W 090°11'0 0.0
2018-May-14 07:30N 38°38' W 090°11'2 4.3
2018-May-14 07:01N 38°36' W 090°11'0 0.6
2018-May-14 06:17N 38°36' W 090°12'0 0.0
2018-May-14 06:00N 38°36' W 090°12'0 0.2
2018-May-14 05:31N 38°35' W 090°12'0 0.2
2018-May-14 05:00N 38°35' W 090°12'0 0.0
2018-May-14 04:11N 38°35' W 090°12'0 0.2
2018-May-14 04:00N 38°35' W 090°12'0 0.1
2018-May-14 03:24N 38°35' W 090°12'0 0.0
2018-May-14 02:13N 38°35' W 090°12'0 0.0
2018-May-14 00:39N 38°35' W 090°12'0 0.1
2018-May-14 00:19N 38°35' W 090°12'3 0.4
2018-May-13 15:38N 38°38' W 090°11'0 0.0
2018-May-13 15:31N 38°38' W 090°11'1 1.8
2018-May-13 15:00N 38°39' W 090°11'1 2.8
2018-May-13 14:29N 38°38' W 090°11'1 1.9
2018-May-13 14:00N 38°39' W 090°11'1 1.7
2018-May-13 13:29N 38°38' W 090°11'1 1.1
2018-May-13 13:00N 38°38' W 090°10'1 1.9
2018-May-13 12:26N 38°37' W 090°11'1 2.7
2018-May-13 12:00N 38°36' W 090°11'1 1.3
2018-May-13 11:31N 38°36' W 090°12'0 0.1
2018-May-13 11:00N 38°36' W 090°12'0 0.1
2018-May-13 10:31N 38°36' W 090°12'0 0.5
2018-May-13 09:42N 38°35' W 090°12'0 0.9
2018-May-13 09:30N 38°35' W 090°12'0 0.0
2018-May-13 09:00N 38°35' W 090°12'0 0.3
2018-May-13 08:29N 38°35' W 090°12'1 0.1
2018-May-13 04:20N 38°36' W 090°12'0 0.4
2018-May-13 03:45N 38°36' W 090°12'0 0.8
2018-May-13 03:31N 38°36' W 090°12'0 0.0
2018-May-13 03:00N 38°36' W 090°12'0 0.0
2018-May-13 02:28N 38°36' W 090°12'0 0.1
2018-May-13 00:50N 38°36' W 090°12'0 0.2
2018-May-12 23:50N 38°35' W 090°12'0 0.3
2018-May-12 23:28N 38°35' W 090°12'0 0.1
2018-May-12 22:45N 38°35' W 090°12'0 0.2
2018-May-12 22:24N 38°35' W 090°12'1 0.4
2018-May-12 21:10N 38°36' W 090°12'1 8.4
2018-May-12 21:00N 38°37' W 090°11'4 8.1
2018-May-12 20:30N 38°41' W 090°12'1 1.4
2018-May-12 20:00N 38°40' W 090°11'2 4.1
2018-May-12 19:30N 38°38' W 090°11'0 0.4
2018-May-12 19:00N 38°38' W 090°11'1 2.4
2018-May-12 18:30N 38°39' W 090°11'1 2.4
2018-May-12 18:00N 38°38' W 090°11'0 0.1
2018-May-12 17:30N 38°38' W 090°11'1 2.3
2018-May-12 17:00N 38°39' W 090°11'1 2.4
2018-May-12 16:29N 38°38' W 090°11'0 0.2
2018-May-12 16:00N 38°38' W 090°11'1 2.6
2018-May-12 15:29N 38°39' W 090°11'0 0.1
2018-May-12 15:00N 38°39' W 090°11'0 0.1
2018-May-12 14:30N 38°39' W 090°11'0 0.1
2018-May-12 14:00N 38°39' W 090°11'0 0.1
2018-May-12 13:28N 38°39' W 090°11'0 0.1
2018-May-12 13:00N 38°39' W 090°11'0 0.2
2018-May-12 12:28N 38°39' W 090°11'0 0.1
2018-May-12 12:00N 38°39' W 090°11'0 0.0
2018-May-12 11:29N 38°39' W 090°11'0 0.3
2018-May-12 11:00N 38°39' W 090°11'3 5.3
2018-May-12 10:26N 38°36' W 090°11'1 2.5
2018-May-12 09:59N 38°35' W 090°12'0 0.2
2018-May-12 09:29N 38°35' W 090°12'0 0.0
2018-May-12 09:00N 38°35' W 090°12'0 0.0
2018-May-12 08:31N 38°35' W 090°12'0 0.1
2018-May-12 07:35N 38°35' W 090°12'0 1.7
2018-May-12 07:30N 38°35' W 090°12'0 0.1
2018-May-12 07:00N 38°35' W 090°12'0 0.2
2018-May-12 06:23N 38°35' W 090°12'0 0.2
2018-May-12 06:00N 38°35' W 090°12'0 0.1
2018-May-12 05:31N 38°35' W 090°12'0 0.0
2018-May-12 04:00N 38°35' W 090°12'2 3.9
2018-May-12 03:28N 38°37' W 090°11'2 3.6
2018-May-12 03:00N 38°36' W 090°12'0 0.1
2018-May-12 02:29N 38°36' W 090°12'0 0.4
2018-May-12 02:00N 38°36' W 090°12'0 0.0
2018-May-12 01:15N 38°36' W 090°12'0 0.7
2018-May-12 00:54N 38°36' W 090°12'2 5.8
2018-May-12 00:29N 38°38' W 090°11'0 0.4
2018-May-12 00:00N 38°38' W 090°11'3 0.7
2018-May-11 19:59N 38°36' W 090°12'0 0.2
2018-May-11 18:16N 38°35' W 090°12'0 0.8
2018-May-11 17:59N 38°35' W 090°12'0 0.0
2018-May-11 14:53N 38°35' W 090°12'1 0.9
2018-May-11 13:58N 38°36' W 090°11'4 9.7
2018-May-11 13:31N 38°40' W 090°11'2 3.4
2018-May-11 13:01N 38°42' W 090°11'0 0.9
2018-May-11 12:31N 38°43' W 090°11'2 4.0
2018-May-11 12:01N 38°44' W 090°09'4 8.7
2018-May-11 11:30N 38°48' W 090°07'3 5.4
2018-May-11 11:00N 38°51' W 090°07'0 0.0
2018-May-11 10:30N 38°51' W 090°07'0 0.0
2018-May-11 10:00N 38°51' W 090°07'0 0.0
2018-May-11 09:30N 38°51' W 090°07'1 2.6
2018-May-11 09:00N 38°52' W 090°08'2 4.1
2018-May-11 08:30N 38°50' W 090°07'3 5.2
2018-May-11 08:01N 38°47' W 090°07'4 7.7
2018-May-11 07:30N 38°44' W 090°10'2 3.2
2018-May-11 07:00N 38°43' W 090°11'1 1.0
2018-May-11 06:29N 38°42' W 090°11'1 2.7
2018-May-11 06:00N 38°41' W 090°11'2 3.0
2018-May-11 05:30N 38°39' W 090°11'1 2.5
2018-May-11 05:00N 38°38' W 090°11'1 2.3
2018-May-11 04:29N 38°37' W 090°11'1 2.6
2018-May-11 03:58N 38°36' W 090°12'1 0.8
2018-May-11 02:58N 38°35' W 090°12'0 0.7
2018-May-11 02:24N 38°36' W 090°12'1 2.2
2018-May-11 01:59N 38°36' W 090°11'0 0.2
2018-May-11 01:24N 38°36' W 090°11'0 0.1
2018-May-11 01:00N 38°36' W 090°11'1 1.3
2018-May-11 00:17N 38°35' W 090°12'0 0.1
2018-May-10 19:28N 38°36' W 090°12'0 0.3
2018-May-10 18:59N 38°36' W 090°12'0 0.6
2018-May-10 18:28N 38°35' W 090°12'0 0.1
2018-May-10 17:59N 38°35' W 090°12'0 0.2
2018-May-10 17:03N 38°36' W 090°12'0 0.1
2018-May-10 16:57N 38°36' W 090°12'0 0.2
2018-May-10 16:30N 38°36' W 090°12'0 0.7
2018-May-10 15:56N 38°36' W 090°12'0 0.2
2018-May-10 15:29N 38°36' W 090°12'0 0.4
2018-May-10 14:27N 38°35' W 090°12'0 0.2
2018-May-10 13:58N 38°35' W 090°12'0 0.4
2018-May-10 13:30N 38°35' W 090°12'0 0.1
2018-May-10 13:00N 38°35' W 090°12'0 0.0
2018-May-10 12:30N 38°35' W 090°12'0 0.0
2018-May-10 12:00N 38°35' W 090°12'0 0.5
2018-May-10 11:30N 38°36' W 090°12'0 0.1
2018-May-10 11:01N 38°36' W 090°12'0 0.6
2018-May-10 10:30N 38°35' W 090°12'0 0.0
2018-May-10 10:00N 38°35' W 090°12'2 4.7
2018-May-10 09:30N 38°37' W 090°11'4 8.7
2018-May-10 09:01N 38°42' W 090°11'1 2.2
2018-May-10 08:30N 38°43' W 090°10'1 2.7
2018-May-10 08:01N 38°44' W 090°10'4 8.8
2018-May-10 07:30N 38°48' W 090°07'4 7.9
2018-May-10 07:01N 38°52' W 090°08'0 0.0
2018-May-10 06:30N 38°52' W 090°08'1 2.8
2018-May-10 06:00N 38°51' W 090°07'2 3.7
2018-May-10 05:30N 38°49' W 090°07'2 4.8
2018-May-10 05:00N 38°47' W 090°08'2 3.2
2018-May-10 04:30N 38°45' W 090°09'2 3.9
2018-May-10 03:58N 38°43' W 090°10'2 2.0
2018-May-10 03:04N 38°42' W 090°11'0 2.0
2018-May-10 02:59N 38°42' W 090°11'1 1.6
2018-May-10 02:31N 38°41' W 090°11'2 3.3
2018-May-10 02:01N 38°39' W 090°11'2 3.3
2018-May-10 01:28N 38°38' W 090°11'2 3.4
2018-May-10 01:00N 38°36' W 090°11'1 2.0
2018-May-10 00:28N 38°35' W 090°12'4 0.3
2018-May-09 08:24N 38°39' W 090°11'1 3.0
2018-May-09 07:58N 38°38' W 090°11'2 3.2
2018-May-09 07:30N 38°36' W 090°11'1 0.8
2018-May-09 06:21N 38°36' W 090°12'0 0.2
2018-May-09 05:26N 38°35' W 090°12'0 0.3
2018-May-09 04:56N 38°35' W 090°12'0 0.0
2018-May-09 03:10N 38°35' W 090°12'0 0.3
2018-May-09 02:47N 38°35' W 090°12'0 0.1
2018-May-09 02:30N 38°35' W 090°12'0 0.1
2018-May-09 02:00N 38°35' W 090°12'0 0.1
2018-May-09 01:06N 38°35' W 090°12'0 0.3
2018-May-09 01:01N 38°35' W 090°12'0 0.3
2018-May-09 00:28N 38°35' W 090°12'0 0.4
2018-May-08 23:58N 38°35' W 090°12'0 0.1
2018-May-08 23:30N 38°35' W 090°12'0 0.1
2018-May-08 22:55N 38°35' W 090°12'0 0.3
2018-May-08 22:27N 38°35' W 090°12'0 0.2
2018-May-08 21:41N 38°35' W 090°12'0 1.1
2018-May-08 21:30N 38°35' W 090°12'0 0.1
2018-May-08 20:59N 38°35' W 090°12'0 0.2
2018-May-08 20:28N 38°35' W 090°12'0 0.0
2018-May-08 19:59N 38°35' W 090°12'0 0.0
2018-May-08 16:26N 38°35' W 090°12'0 0.5
2018-May-08 15:59N 38°35' W 090°12'0 0.4
2018-May-08 15:14N 38°35' W 090°12'0 0.3
2018-May-08 15:00N 38°35' W 090°12'1 0.9
2018-May-08 14:19N 38°36' W 090°12'0 0.7
2018-May-08 13:55N 38°36' W 090°12'1 1.1
2018-May-08 13:07N 38°35' W 090°12'0 1.4
2018-May-08 13:01N 38°35' W 090°12'4 7.2
2018-May-08 12:31N 38°39' W 090°11'3 6.6
2018-May-08 12:00N 38°42' W 090°11'1 1.9
2018-May-08 11:30N 38°43' W 090°10'0 0.1
2018-May-08 11:00N 38°43' W 090°10'0 0.1
2018-May-08 10:30N 38°43' W 090°10'0 0.0
2018-May-08 10:00N 38°43' W 090°10'0 0.0
2018-May-08 09:30N 38°43' W 090°10'0 0.1
2018-May-08 08:46N 38°43' W 090°10'0 0.0
2018-May-08 08:25N 38°43' W 090°10'0 0.0
2018-May-08 07:52N 38°43' W 090°10'0 1.2
2018-May-08 07:30N 38°42' W 090°11'0 0.8
2018-May-08 07:00N 38°43' W 090°10'0 0.0
2018-May-08 06:29N 38°43' W 090°10'0 0.0
2018-May-08 06:00N 38°43' W 090°10'0 0.6
2018-May-08 05:31N 38°43' W 090°10'1 1.4
2018-May-08 05:01N 38°43' W 090°10'0 0.8
2018-May-08 04:31N 38°43' W 090°10'0 0.0
2018-May-08 03:57N 38°43' W 090°10'0 0.1
2018-May-08 03:30N 38°43' W 090°10'0 0.7
2018-May-08 03:00N 38°43' W 090°10'1 1.1
2018-May-08 02:29N 38°42' W 090°11'1 1.9
2018-May-08 02:01N 38°41' W 090°11'2 4.2
2018-May-08 01:31N 38°39' W 090°11'2 3.9
2018-May-08 01:00N 38°37' W 090°11'2 2.5
2018-May-08 00:13N 38°35' W 090°12'0 0.2
2018-May-08 00:00N 38°35' W 090°12'1 0.5
2018-May-07 22:57N 38°35' W 090°12'0 1.0
2018-May-07 22:28N 38°35' W 090°12'0 0.0
2018-May-07 21:35N 38°35' W 090°12'0 0.1
2018-May-07 20:36N 38°35' W 090°12'0 0.1
2018-May-07 20:18N 38°35' W 090°12'3 8.9
2018-May-07 19:59N 38°38' W 090°11'3 6.0
2018-May-07 19:30N 38°41' W 090°11'0 0.2
2018-May-07 19:00N 38°41' W 090°11'0 0.8
2018-May-07 18:30N 38°40' W 090°11'1 2.0
2018-May-07 17:56N 38°39' W 090°11'0 0.4
2018-May-07 17:30N 38°39' W 090°11'1 2.5
2018-May-07 16:59N 38°38' W 090°11'0 0.0
2018-May-07 16:30N 38°38' W 090°11'0 0.0
2018-May-07 15:59N 38°38' W 090°11'0 0.3
2018-May-07 15:30N 38°38' W 090°11'3 5.1
2018-May-07 15:00N 38°35' W 090°12'4 7.7
2018-May-07 14:28N 38°39' W 090°11'0 0.1
2018-May-07 13:56N 38°39' W 090°11'0 0.1
2018-May-07 13:30N 38°39' W 090°11'0 0.0
2018-May-07 12:51N 38°39' W 090°11'0 0.2
2018-May-07 12:30N 38°39' W 090°11'0 0.1
2018-May-07 12:00N 38°39' W 090°11'4 2.9
2018-May-07 10:44N 38°36' W 090°12'0 0.3
2018-May-07 10:30N 38°36' W 090°12'0 0.7
2018-May-07 09:59N 38°35' W 090°12'4 8.2
2018-May-07 09:29N 38°39' W 090°11'0 0.1
2018-May-07 09:00N 38°39' W 090°11'0 0.1
2018-May-07 08:30N 38°39' W 090°11'0 0.2
2018-May-07 08:00N 38°39' W 090°11'0 0.2
2018-May-07 07:30N 38°39' W 090°11'0 0.0
2018-May-07 07:00N 38°39' W 090°11'0 0.0
2018-May-07 06:30N 38°39' W 090°11'0 0.0
2018-May-07 06:00N 38°39' W 090°11'0 0.0
2018-May-07 05:30N 38°39' W 090°11'0 0.0
2018-May-07 05:00N 38°39' W 090°11'0 0.0
2018-May-07 04:30N 38°39' W 090°11'0 0.0
2018-May-07 04:00N 38°39' W 090°11'0 0.0
2018-May-07 03:30N 38°39' W 090°11'0 0.0
2018-May-07 03:00N 38°39' W 090°11'0 0.8
2018-May-07 02:30N 38°39' W 090°11'1 1.1
2018-May-07 02:00N 38°38' W 090°11'0 0.0
2018-May-07 01:29N 38°38' W 090°11'0 0.1
2018-May-07 01:00N 38°38' W 090°11'1 2.0
2018-May-07 00:30N 38°39' W 090°11'0 0.0
2018-May-07 00:00N 38°39' W 090°11'0 0.1
2018-May-06 23:30N 38°39' W 090°11'1 1.6
2018-May-06 23:00N 38°39' W 090°11'3 2.3
2018-May-06 21:31N 38°35' W 090°12'0 3.5
2018-May-06 21:30N 38°35' W 090°12'3 2.7
2018-May-06 20:30N 38°38' W 090°11'0 0.0
2018-May-06 19:20N 38°38' W 090°11'0 0.0
2018-May-06 19:00N 38°38' W 090°11'0 0.0
2018-May-06 18:04N 38°38' W 090°11'0 0.1
2018-May-06 17:59N 38°38' W 090°11'0 0.0
2018-May-06 17:30N 38°38' W 090°11'0 0.0
2018-May-06 16:58N 38°38' W 090°11'0 0.0
2018-May-06 16:24N 38°38' W 090°11'0 0.0
2018-May-06 15:32N 38°38' W 090°11'0 0.0
2018-May-06 15:07N 38°38' W 090°11'0 0.0
2018-May-06 14:55N 38°38' W 090°11'0 0.0
2018-May-06 14:30N 38°38' W 090°11'0 0.7
2018-May-06 14:00N 38°38' W 090°11'0 0.7
2018-May-06 13:30N 38°38' W 090°11'1 2.9
2018-May-06 13:00N 38°39' W 090°11'0 0.1
2018-May-06 12:30N 38°39' W 090°11'1 2.8
2018-May-06 11:59N 38°38' W 090°11'0 0.0
2018-May-06 11:30N 38°38' W 090°11'0 0.0
2018-May-06 11:00N 38°38' W 090°11'2 3.5
2018-May-06 10:30N 38°36' W 090°11'1 2.2
2018-May-06 10:00N 38°35' W 090°12'0 0.3
2018-May-06 09:30N 38°35' W 090°12'3 5.5
2018-May-06 09:00N 38°38' W 090°11'0 0.0
2018-May-06 08:27N 38°38' W 090°11'0 0.0
2018-May-06 08:00N 38°38' W 090°11'0 0.0
2018-May-06 07:26N 38°38' W 090°11'0 0.0
2018-May-06 07:00N 38°38' W 090°11'0 0.0
2018-May-06 06:28N 38°38' W 090°11'0 0.0
2018-May-06 05:58N 38°38' W 090°11'0 0.0
2018-May-06 05:30N 38°38' W 090°11'0 0.0
2018-May-06 05:00N 38°38' W 090°11'0 0.0
2018-May-06 04:29N 38°38' W 090°11'1 1.3
2018-May-06 04:00N 38°37' W 090°11'1 1.3
2018-May-06 03:28N 38°38' W 090°11'0 0.0
2018-May-06 03:00N 38°38' W 090°11'0 0.1
2018-May-06 02:30N 38°38' W 090°11'2 3.9
2018-May-06 02:00N 38°40' W 090°11'2 3.1
2018-May-06 01:30N 38°39' W 090°11'2 4.7
2018-May-06 01:00N 38°41' W 090°11'2 4.1
2018-May-06 00:30N 38°39' W 090°11'3 5.1
2018-May-06 00:00N 38°36' W 090°11'1 0.5
2018-May-05 21:41N 38°35' W 090°12'0 0.6
2018-May-05 21:28N 38°35' W 090°12'0 0.0
2018-May-05 20:58N 38°35' W 090°12'0 0.2
2018-May-05 19:40N 38°36' W 090°12'0 0.6
2018-May-05 19:10N 38°35' W 090°12'0 0.2
2018-May-05 18:04N 38°35' W 090°12'0 0.9
2018-May-05 17:57N 38°35' W 090°12'0 0.1
2018-May-05 17:30N 38°35' W 090°12'  
Track history (hours):
 
Tides and Currents Weather Stations Pressure Air Temp Water Temp Dewpoint Dewpoint Depression Visibility Wind Speed Wind Dir Waves Ship Positions

Ralph Henry

Owner: M/V Ralph Henry, Granite City, IL. More information available from US FCC via Universal Licensing System and Coast Guard Vessel Documentation Center.

Last reported at 2018-May-15 14:20 UTC. Time now 2018-Jun-17 22:18 UTC.
Position N 38°38' W 090°11'.
Warning: this ship's position is 33 days out of date.

Length 21 m.

Type: Ship. MMSI: 367481620.

Date/timePositionNaut miles runAvg speedWind from/ knotsBaromVisibWave heightAir tempDewpointWater temp
2018-May-15 14:20N 38°38' W 090°11'0 1.4
2018-May-15 14:00N 38°38' W 090°11'0 0.2
2018-May-15 13:30N 38°38' W 090°11'0 0.1
2018-May-15 12:59N 38°38' W 090°11'0 0.1
2018-May-15 12:30N 38°38' W 090°11'1 2.9
2018-May-15 12:01N 38°39' W 090°11'0 0.8
2018-May-15 11:30N 38°39' W 090°11'2 4.1
2018-May-15 10:56N 38°37' W 090°11'1 2.2
2018-May-15 10:29N 38°36' W 090°12'0 1.0
2018-May-15 10:00N 38°35' W 090°12'0 0.3
2018-May-15 09:30N 38°35' W 090°12'0 0.1
2018-May-15 09:00N 38°35' W 090°12'0 0.5
2018-May-15 08:26N 38°35' W 090°12'0 0.0
2018-May-15 08:00N 38°35' W 090°12'0 0.0
2018-May-15 07:29N 38°35' W 090°12'0 0.0
2018-May-15 07:00N 38°35' W 090°12'0 0.2
2018-May-15 06:26N 38°35' W 090°12'5 1.9
2018-May-15 03:34N 38°31' W 090°16'0 0.3
2018-May-15 03:22N 38°31' W 090°16'0 0.0
2018-May-15 03:00N 38°31' W 090°16'1 0.3
2018-May-15 00:47N 38°30' W 090°16'3 9.2
2018-May-15 00:30N 38°33' W 090°15'3 1.6
2018-May-14 22:19N 38°35' W 090°12'2 4.5
2018-May-14 21:55N 38°37' W 090°11'2 3.9
2018-May-14 21:29N 38°39' W 090°11'1 1.1
2018-May-14 21:00N 38°38' W 090°11'1 2.7
2018-May-14 20:30N 38°39' W 090°11'0 0.5
2018-May-14 20:01N 38°39' W 090°11'1 2.4
2018-May-14 19:30N 38°38' W 090°11'0 0.1
2018-May-14 19:00N 38°38' W 090°11'0 0.1
2018-May-14 18:30N 38°38' W 090°11'0 0.3
2018-May-14 18:00N 38°38' W 090°11'1 1.4
2018-May-14 17:30N 38°39' W 090°11'1 2.4
2018-May-14 17:00N 38°40' W 090°11'1 2.3
2018-May-14 16:30N 38°41' W 090°11'1 2.1
2018-May-14 16:00N 38°40' W 090°11'1 2.7
2018-May-14 15:30N 38°38' W 090°11'1 1.0
2018-May-14 14:59N 38°38' W 090°11'1 1.3
2018-May-14 14:30N 38°39' W 090°11'0 0.2
2018-May-14 14:00N 38°38' W 090°11'1 1.9
2018-May-14 13:31N 38°39' W 090°11'0 0.3
2018-May-14 12:59N 38°39' W 090°11'0 0.3
2018-May-14 12:30N 38°39' W 090°11'1 1.6
2018-May-14 12:00N 38°39' W 090°11'2 3.2
2018-May-14 11:30N 38°37' W 090°11'1 2.8
2018-May-14 10:59N 38°36' W 090°12'0 0.4
2018-May-14 10:31N 38°36' W 090°12'0 0.4
2018-May-14 09:55N 38°35' W 090°12'3 6.8
2018-May-14 09:29N 38°38' W 090°11'0 0.1
2018-May-14 08:59N 38°38' W 090°11'0 0.0
2018-May-14 08:25N 38°38' W 090°11'0 0.5
2018-May-14 08:00N 38°38' W 090°11'0 0.0
2018-May-14 07:30N 38°38' W 090°11'2 4.3
2018-May-14 07:01N 38°36' W 090°11'0 0.6
2018-May-14 06:17N 38°36' W 090°12'0 0.0
2018-May-14 06:00N 38°36' W 090°12'0 0.2
2018-May-14 05:31N 38°35' W 090°12'0 0.2
2018-May-14 05:00N 38°35' W 090°12'0 0.0
2018-May-14 04:11N 38°35' W 090°12'0 0.2
2018-May-14 04:00N 38°35' W 090°12'0 0.1
2018-May-14 03:24N 38°35' W 090°12'0 0.0
2018-May-14 02:13N 38°35' W 090°12'0 0.0
2018-May-14 00:39N 38°35' W 090°12'0 0.1
2018-May-14 00:19N 38°35' W 090°12'3 0.4
2018-May-13 15:38N 38°38' W 090°11'0 0.0
2018-May-13 15:31N 38°38' W 090°11'1 1.8
2018-May-13 15:00N 38°39' W 090°11'1 2.8
2018-May-13 14:29N 38°38' W 090°11'1 1.9
2018-May-13 14:00N 38°39' W 090°11'1 1.7
2018-May-13 13:29N 38°38' W 090°11'1 1.1
2018-May-13 13:00N 38°38' W 090°10'1 1.9
2018-May-13 12:26N 38°37' W 090°11'1 2.7
2018-May-13 12:00N 38°36' W 090°11'1 1.3
2018-May-13 11:31N 38°36' W 090°12'0 0.1
2018-May-13 11:00N 38°36' W 090°12'0 0.1
2018-May-13 10:31N 38°36' W 090°12'0 0.5
2018-May-13 09:42N 38°35' W 090°12'0 0.9
2018-May-13 09:30N 38°35' W 090°12'0 0.0
2018-May-13 09:00N 38°35' W 090°12'0 0.3
2018-May-13 08:29N 38°35' W 090°12'1 0.1
2018-May-13 04:20N 38°36' W 090°12'0 0.4
2018-May-13 03:45N 38°36' W 090°12'0 0.8
2018-May-13 03:31N 38°36' W 090°12'0 0.0
2018-May-13 03:00N 38°36' W 090°12'0 0.0
2018-May-13 02:28N 38°36' W 090°12'0 0.1
2018-May-13 00:50N 38°36' W 090°12'0 0.2
2018-May-12 23:50N 38°35' W 090°12'0 0.3
2018-May-12 23:28N 38°35' W 090°12'0 0.1
2018-May-12 22:45N 38°35' W 090°12'0 0.2
2018-May-12 22:24N 38°35' W 090°12'1 0.4
2018-May-12 21:10N 38°36' W 090°12'1 8.4
2018-May-12 21:00N 38°37' W 090°11'4 8.1
2018-May-12 20:30N 38°41' W 090°12'1 1.4
2018-May-12 20:00N 38°40' W 090°11'2 4.1
2018-May-12 19:30N 38°38' W 090°11'0 0.4
2018-May-12 19:00N 38°38' W 090°11'1 2.4
2018-May-12 18:30N 38°39' W 090°11'1 2.4
2018-May-12 18:00N 38°38' W 090°11'0 0.1
2018-May-12 17:30N 38°38' W 090°11'1 2.3
2018-May-12 17:00N 38°39' W 090°11'1 2.4
2018-May-12 16:29N 38°38' W 090°11'0 0.2
2018-May-12 16:00N 38°38' W 090°11'1 2.6
2018-May-12 15:29N 38°39' W 090°11'0 0.1
2018-May-12 15:00N 38°39' W 090°11'0 0.1
2018-May-12 14:30N 38°39' W 090°11'0 0.1
2018-May-12 14:00N 38°39' W 090°11'0 0.1
2018-May-12 13:28N 38°39' W 090°11'0 0.1
2018-May-12 13:00N 38°39' W 090°11'0 0.2
2018-May-12 12:28N 38°39' W 090°11'0 0.1
2018-May-12 12:00N 38°39' W 090°11'0 0.0
2018-May-12 11:29N 38°39' W 090°11'0 0.3
2018-May-12 11:00N 38°39' W 090°11'3 5.3
2018-May-12 10:26N 38°36' W 090°11'1 2.5
2018-May-12 09:59N 38°35' W 090°12'0 0.2
2018-May-12 09:29N 38°35' W 090°12'0 0.0
2018-May-12 09:00N 38°35' W 090°12'0 0.0
2018-May-12 08:31N 38°35' W 090°12'0 0.1
2018-May-12 07:35N 38°35' W 090°12'0 1.7
2018-May-12 07:30N 38°35' W 090°12'0 0.1
2018-May-12 07:00N 38°35' W 090°12'0 0.2
2018-May-12 06:23N 38°35' W 090°12'0 0.2
2018-May-12 06:00N 38°35' W 090°12'0 0.1
2018-May-12 05:31N 38°35' W 090°12'0 0.0
2018-May-12 04:00N 38°35' W 090°12'2 3.9
2018-May-12 03:28N 38°37' W 090°11'2 3.6
2018-May-12 03:00N 38°36' W 090°12'0 0.1
2018-May-12 02:29N 38°36' W 090°12'0 0.4
2018-May-12 02:00N 38°36' W 090°12'0 0.0
2018-May-12 01:15N 38°36' W 090°12'0 0.7
2018-May-12 00:54N 38°36' W 090°12'2 5.8
2018-May-12 00:29N 38°38' W 090°11'0 0.4
2018-May-12 00:00N 38°38' W 090°11'3 0.7
2018-May-11 19:59N 38°36' W 090°12'0 0.2
2018-May-11 18:16N 38°35' W 090°12'0 0.8
2018-May-11 17:59N 38°35' W 090°12'0 0.0
2018-May-11 14:53N 38°35' W 090°12'1 0.9
2018-May-11 13:58N 38°36' W 090°11'4 9.7
2018-May-11 13:31N 38°40' W 090°11'2 3.4
2018-May-11 13:01N 38°42' W 090°11'0 0.9
2018-May-11 12:31N 38°43' W 090°11'2 4.0
2018-May-11 12:01N 38°44' W 090°09'4 8.7
2018-May-11 11:30N 38°48' W 090°07'3 5.4
2018-May-11 11:00N 38°51' W 090°07'0 0.0
2018-May-11 10:30N 38°51' W 090°07'0 0.0
2018-May-11 10:00N 38°51' W 090°07'0 0.0
2018-May-11 09:30N 38°51' W 090°07'1 2.6
2018-May-11 09:00N 38°52' W 090°08'2 4.1
2018-May-11 08:30N 38°50' W 090°07'3 5.2
2018-May-11 08:01N 38°47' W 090°07'4 7.7
2018-May-11 07:30N 38°44' W 090°10'2 3.2
2018-May-11 07:00N 38°43' W 090°11'1 1.0
2018-May-11 06:29N 38°42' W 090°11'1 2.7
2018-May-11 06:00N 38°41' W 090°11'2 3.0
2018-May-11 05:30N 38°39' W 090°11'1 2.5
2018-May-11 05:00N 38°38' W 090°11'1 2.3
2018-May-11 04:29N 38°37' W 090°11'1 2.6
2018-May-11 03:58N 38°36' W 090°12'1 0.8
2018-May-11 02:58N 38°35' W 090°12'0 0.7
2018-May-11 02:24N 38°36' W 090°12'1 2.2
2018-May-11 01:59N 38°36' W 090°11'0 0.2
2018-May-11 01:24N 38°36' W 090°11'0 0.1
2018-May-11 01:00N 38°36' W 090°11'1 1.3
2018-May-11 00:17N 38°35' W 090°12'0 0.1
2018-May-10 19:28N 38°36' W 090°12'0 0.3
2018-May-10 18:59N 38°36' W 090°12'0 0.6
2018-May-10 18:28N 38°35' W 090°12'0 0.1
2018-May-10 17:59N 38°35' W 090°12'0 0.2
2018-May-10 17:03N 38°36' W 090°12'0 0.1
2018-May-10 16:57N 38°36' W 090°12'0 0.2
2018-May-10 16:30N 38°36' W 090°12'0 0.7
2018-May-10 15:56N 38°36' W 090°12'0 0.2
2018-May-10 15:29N 38°36' W 090°12'0 0.4
2018-May-10 14:27N 38°35' W 090°12'0 0.2
2018-May-10 13:58N 38°35' W 090°12'0 0.4
2018-May-10 13:30N 38°35' W 090°12'0 0.1
2018-May-10 13:00N 38°35' W 090°12'0 0.0
2018-May-10 12:30N 38°35' W 090°12'0 0.0
2018-May-10 12:00N 38°35' W 090°12'0 0.5
2018-May-10 11:30N 38°36' W 090°12'0 0.1
2018-May-10 11:01N 38°36' W 090°12'0 0.6
2018-May-10 10:30N 38°35' W 090°12'0 0.0
2018-May-10 10:00N 38°35' W 090°12'2 4.7
2018-May-10 09:30N 38°37' W 090°11'4 8.7
2018-May-10 09:01N 38°42' W 090°11'1 2.2
2018-May-10 08:30N 38°43' W 090°10'1 2.7
2018-May-10 08:01N 38°44' W 090°10'4 8.8
2018-May-10 07:30N 38°48' W 090°07'4 7.9
2018-May-10 07:01N 38°52' W 090°08'0 0.0
2018-May-10 06:30N 38°52' W 090°08'1 2.8
2018-May-10 06:00N 38°51' W 090°07'2 3.7
2018-May-10 05:30N 38°49' W 090°07'2 4.8
2018-May-10 05:00N 38°47' W 090°08'2 3.2
2018-May-10 04:30N 38°45' W 090°09'2 3.9
2018-May-10 03:58N 38°43' W 090°10'2 2.0
2018-May-10 03:04N 38°42' W 090°11'0 2.0
2018-May-10 02:59N 38°42' W 090°11'1 1.6
2018-May-10 02:31N 38°41' W 090°11'2 3.3
2018-May-10 02:01N 38°39' W 090°11'2 3.3
2018-May-10 01:28N 38°38' W 090°11'2 3.4
2018-May-10 01:00N 38°36' W 090°11'1 2.0
2018-May-10 00:28N 38°35' W 090°12'4 0.3
2018-May-09 08:24N 38°39' W 090°11'1 3.0
2018-May-09 07:58N 38°38' W 090°11'2 3.2
2018-May-09 07:30N 38°36' W 090°11'1 0.8
2018-May-09 06:21N 38°36' W 090°12'0 0.2
2018-May-09 05:26N 38°35' W 090°12'0 0.3
2018-May-09 04:56N 38°35' W 090°12'0 0.0
2018-May-09 03:10N 38°35' W 090°12'0 0.3
2018-May-09 02:47N 38°35' W 090°12'0 0.1
2018-May-09 02:30N 38°35' W 090°12'0 0.1
2018-May-09 02:00N 38°35' W 090°12'0 0.1
2018-May-09 01:06N 38°35' W 090°12'0 0.3
2018-May-09 01:01N 38°35' W 090°12'0 0.3
2018-May-09 00:28N 38°35' W 090°12'0 0.4
2018-May-08 23:58N 38°35' W 090°12'0 0.1
2018-May-08 23:30N 38°35' W 090°12'0 0.1
2018-May-08 22:55N 38°35' W 090°12'0 0.3
2018-May-08 22:27N 38°35' W 090°12'0 0.2
2018-May-08 21:41N 38°35' W 090°12'0 1.1
2018-May-08 21:30N 38°35' W 090°12'0 0.1
2018-May-08 20:59N 38°35' W 090°12'0 0.2
2018-May-08 20:28N 38°35' W 090°12'0 0.0
2018-May-08 19:59N 38°35' W 090°12'0 0.0
2018-May-08 16:26N 38°35' W 090°12'0 0.5
2018-May-08 15:59N 38°35' W 090°12'0 0.4
2018-May-08 15:14N 38°35' W 090°12'0 0.3
2018-May-08 15:00N 38°35' W 090°12'1 0.9
2018-May-08 14:19N 38°36' W 090°12'0 0.7
2018-May-08 13:55N 38°36' W 090°12'1 1.1
2018-May-08 13:07N 38°35' W 090°12'0 1.4
2018-May-08 13:01N 38°35' W 090°12'4 7.2
2018-May-08 12:31N 38°39' W 090°11'3 6.6
2018-May-08 12:00N 38°42' W 090°11'1 1.9
2018-May-08 11:30N 38°43' W 090°10'0 0.1
2018-May-08 11:00N 38°43' W 090°10'0 0.1
2018-May-08 10:30N 38°43' W 090°10'0 0.0
2018-May-08 10:00N 38°43' W 090°10'0 0.0
2018-May-08 09:30N 38°43' W 090°10'0 0.1
2018-May-08 08:46N 38°43' W 090°10'0 0.0
2018-May-08 08:25N 38°43' W 090°10'0 0.0
2018-May-08 07:52N 38°43' W 090°10'0 1.2
2018-May-08 07:30N 38°42' W 090°11'0 0.8
2018-May-08 07:00N 38°43' W 090°10'0 0.0
2018-May-08 06:29N 38°43' W 090°10'0 0.0
2018-May-08 06:00N 38°43' W 090°10'0 0.6
2018-May-08 05:31N 38°43' W 090°10'1 1.4
2018-May-08 05:01N 38°43' W 090°10'0 0.8
2018-May-08 04:31N 38°43' W 090°10'0 0.0
2018-May-08 03:57N 38°43' W 090°10'0 0.1
2018-May-08 03:30N 38°43' W 090°10'0 0.7
2018-May-08 03:00N 38°43' W 090°10'1 1.1
2018-May-08 02:29N 38°42' W 090°11'1 1.9
2018-May-08 02:01N 38°41' W 090°11'2 4.2
2018-May-08 01:31N 38°39' W 090°11'2 3.9
2018-May-08 01:00N 38°37' W 090°11'2 2.5
2018-May-08 00:13N 38°35' W 090°12'0 0.2
2018-May-08 00:00N 38°35' W 090°12'1 0.5
2018-May-07 22:57N 38°35' W 090°12'0 1.0
2018-May-07 22:28N 38°35' W 090°12'0 0.0
2018-May-07 21:35N 38°35' W 090°12'0 0.1
2018-May-07 20:36N 38°35' W 090°12'0 0.1
2018-May-07 20:18N 38°35' W 090°12'3 8.9
2018-May-07 19:59N 38°38' W 090°11'3 6.0
2018-May-07 19:30N 38°41' W 090°11'0 0.2
2018-May-07 19:00N 38°41' W 090°11'0 0.8
2018-May-07 18:30N 38°40' W 090°11'1 2.0
2018-May-07 17:56N 38°39' W 090°11'0 0.4
2018-May-07 17:30N 38°39' W 090°11'1 2.5
2018-May-07 16:59N 38°38' W 090°11'0 0.0
2018-May-07 16:30N 38°38' W 090°11'0 0.0
2018-May-07 15:59N 38°38' W 090°11'0 0.3
2018-May-07 15:30N 38°38' W 090°11'3 5.1
2018-May-07 15:00N 38°35' W 090°12'4 7.7
2018-May-07 14:28N 38°39' W 090°11'0 0.1
2018-May-07 13:56N 38°39' W 090°11'0 0.1
2018-May-07 13:30N 38°39' W 090°11'0 0.0
2018-May-07 12:51N 38°39' W 090°11'0 0.2
2018-May-07 12:30N 38°39' W 090°11'0 0.1
2018-May-07 12:00N 38°39' W 090°11'4 2.9
2018-May-07 10:44N 38°36' W 090°12'0 0.3
2018-May-07 10:30N 38°36' W 090°12'0 0.7
2018-May-07 09:59N 38°35' W 090°12'4 8.2
2018-May-07 09:29N 38°39' W 090°11'0 0.1
2018-May-07 09:00N 38°39' W 090°11'0 0.1
2018-May-07 08:30N 38°39' W 090°11'0 0.2
2018-May-07 08:00N 38°39' W 090°11'0 0.2
2018-May-07 07:30N 38°39' W 090°11'0 0.0
2018-May-07 07:00N 38°39' W 090°11'0 0.0
2018-May-07 06:30N 38°39' W 090°11'0 0.0
2018-May-07 06:00N 38°39' W 090°11'0 0.0
2018-May-07 05:30N 38°39' W 090°11'0 0.0
2018-May-07 05:00N 38°39' W 090°11'0 0.0
2018-May-07 04:30N 38°39' W 090°11'0 0.0
2018-May-07 04:00N 38°39' W 090°11'0 0.0
2018-May-07 03:30N 38°39' W 090°11'0 0.0
2018-May-07 03:00N 38°39' W 090°11'0 0.8
2018-May-07 02:30N 38°39' W 090°11'1 1.1
2018-May-07 02:00N 38°38' W 090°11'0 0.0
2018-May-07 01:29N 38°38' W 090°11'0 0.1
2018-May-07 01:00N 38°38' W 090°11'1 2.0
2018-May-07 00:30N 38°39' W 090°11'0 0.0
2018-May-07 00:00N 38°39' W 090°11'0 0.1
2018-May-06 23:30N 38°39' W 090°11'1 1.6
2018-May-06 23:00N 38°39' W 090°11'3 2.3
2018-May-06 21:31N 38°35' W 090°12'0 3.5
2018-May-06 21:30N 38°35' W 090°12'3 2.7
2018-May-06 20:30N 38°38' W 090°11'0 0.0
2018-May-06 19:20N 38°38' W 090°11'0 0.0
2018-May-06 19:00N 38°38' W 090°11'0 0.0
2018-May-06 18:04N 38°38' W 090°11'0 0.1
2018-May-06 17:59N 38°38' W 090°11'0 0.0
2018-May-06 17:30N 38°38' W 090°11'0 0.0
2018-May-06 16:58N 38°38' W 090°11'0 0.0
2018-May-06 16:24N 38°38' W 090°11'0 0.0
2018-May-06 15:32N 38°38' W 090°11'0 0.0
2018-May-06 15:07N 38°38' W 090°11'0 0.0
2018-May-06 14:55N 38°38' W 090°11'0 0.0
2018-May-06 14:30N 38°38' W 090°11'0 0.7
2018-May-06 14:00N 38°38' W 090°11'0 0.7
2018-May-06 13:30N 38°38' W 090°11'1 2.9
2018-May-06 13:00N 38°39' W 090°11'0 0.1
2018-May-06 12:30N 38°39' W 090°11'1 2.8
2018-May-06 11:59N 38°38' W 090°11'0 0.0
2018-May-06 11:30N 38°38' W 090°11'0 0.0
2018-May-06 11:00N 38°38' W 090°11'2 3.5
2018-May-06 10:30N 38°36' W 090°11'1 2.2
2018-May-06 10:00N 38°35' W 090°12'0 0.3
2018-May-06 09:30N 38°35' W 090°12'3 5.5
2018-May-06 09:00N 38°38' W 090°11'0 0.0
2018-May-06 08:27N 38°38' W 090°11'0 0.0
2018-May-06 08:00N 38°38' W 090°11'0 0.0
2018-May-06 07:26N 38°38' W 090°11'0 0.0
2018-May-06 07:00N 38°38' W 090°11'0 0.0
2018-May-06 06:28N 38°38' W 090°11'0 0.0
2018-May-06 05:58N 38°38' W 090°11'0 0.0
2018-May-06 05:30N 38°38' W 090°11'0 0.0
2018-May-06 05:00N 38°38' W 090°11'0 0.0
2018-May-06 04:29N 38°38' W 090°11'1 1.3
2018-May-06 04:00N 38°37' W 090°11'1 1.3
2018-May-06 03:28N 38°38' W 090°11'0 0.0
2018-May-06 03:00N 38°38' W 090°11'0 0.1
2018-May-06 02:30N 38°38' W 090°11'2 3.9
2018-May-06 02:00N 38°40' W 090°11'2 3.1
2018-May-06 01:30N 38°39' W 090°11'2 4.7
2018-May-06 01:00N 38°41' W 090°11'2 4.1
2018-May-06 00:30N 38°39' W 090°11'3 5.1
2018-May-06 00:00N 38°36' W 090°11'1 0.5
2018-May-05 21:41N 38°35' W 090°12'0 0.6
2018-May-05 21:28N 38°35' W 090°12'0 0.0
2018-May-05 20:58N 38°35' W 090°12'0 0.2
2018-May-05 19:40N 38°36' W 090°12'0 0.6
2018-May-05 19:10N 38°35' W 090°12'0 0.2
2018-May-05 18:04N 38°35' W 090°12'0 0.9
2018-May-05 17:57N 38°35' W 090°12'0 0.1
2018-May-05 17:30N 38°35' W 090°12'  

Dump ship's entire track history